createdAt,value
2022-07-29T00:00:43.589Z,18.7
2022-07-29T00:06:14.239Z,18.6
2022-07-29T00:11:50.633Z,18.7
2022-07-29T00:17:41.071Z,18.6
2022-07-29T00:23:13.752Z,18.7
2022-07-29T00:28:26.403Z,18.7
2022-07-29T00:34:03.252Z,18.8
2022-07-29T00:39:51.221Z,18.8
2022-07-29T00:45:15.146Z,18.6
2022-07-29T00:51:00.265Z,18.7
2022-07-29T00:56:36.029Z,18.7
2022-07-29T01:02:16.679Z,18.4
2022-07-29T01:07:51.472Z,18.6
2022-07-29T01:13:15.761Z,18.5
2022-07-29T01:19:07.313Z,18.3
2022-07-29T01:24:20.384Z,18.2
2022-07-29T01:30:14.729Z,18.2
2022-07-29T01:35:43.392Z,18.1
2022-07-29T01:41:27.591Z,18
2022-07-29T01:46:54.303Z,17.9
2022-07-29T01:52:45.005Z,17.9
2022-07-29T01:58:17.116Z,17.9
2022-07-29T02:03:45.371Z,17.8
2022-07-29T02:09:36.241Z,17.8
2022-07-29T02:15:01.496Z,17.9
2022-07-29T02:20:23.995Z,17.9
2022-07-29T02:26:00.850Z,17.8
2022-07-29T02:31:30.814Z,17.8
2022-07-29T02:37:28.457Z,17.9
2022-07-29T02:42:56.476Z,18.1
2022-07-29T02:48:29.693Z,18
2022-07-29T02:53:59.321Z,17.9
2022-07-29T02:59:39.660Z,17.9
2022-07-29T03:05:09.795Z,17.7
2022-07-29T03:10:38.320Z,17.7
2022-07-29T03:16:22.696Z,17.6
2022-07-29T03:21:57.388Z,17.6
2022-07-29T03:27:50.587Z,17.5
2022-07-29T03:33:13.340Z,17.6
2022-07-29T03:38:52.598Z,17.5
2022-07-29T03:44:13.396Z,17.6
2022-07-29T03:49:45.987Z,17.6
2022-07-29T03:55:22.876Z,17.3
2022-07-29T04:00:56.726Z,17.3
2022-07-29T04:06:40.742Z,17.1
2022-07-29T04:12:20.922Z,17.1
2022-07-29T04:17:50.884Z,17.2
2022-07-29T04:23:29.971Z,17.3
2022-07-29T04:29:12.056Z,17.4
2022-07-29T04:34:44.292Z,17.5
2022-07-29T04:40:04.977Z,17.4
2022-07-29T04:45:37.075Z,17.5
2022-07-29T04:51:15.659Z,17.6
2022-07-29T04:57:07.247Z,17.7
2022-07-29T05:02:49.311Z,17.4
2022-07-29T05:08:08.511Z,17.4
2022-07-29T05:13:52.548Z,17.4
2022-07-29T05:19:17.256Z,17.3
2022-07-29T05:25:09.209Z,17.1
2022-07-29T05:30:30.054Z,17
2022-07-29T05:36:00.252Z,17.4
2022-07-29T05:41:48.820Z,17.8
2022-07-29T05:47:11.593Z,17.9
2022-07-29T05:53:19.326Z,17.9
2022-07-29T05:58:16.872Z,18
2022-07-29T06:04:11.380Z,18
2022-07-29T06:09:54.422Z,18
2022-07-29T06:15:28.806Z,18.1
2022-07-29T06:20:49.287Z,18.1
2022-07-29T06:26:39.930Z,18
2022-07-29T06:32:05.115Z,17.9
2022-07-29T06:37:23.187Z,18.2
2022-07-29T06:43:05.685Z,18.2
2022-07-29T06:48:50.297Z,18.3
2022-07-29T06:54:32.703Z,18.3
2022-07-29T06:59:50.568Z,18.4
2022-07-29T07:05:34.033Z,18.5
2022-07-29T07:11:14.798Z,18.5
2022-07-29T07:16:55.767Z,18.7
2022-07-29T07:22:15.508Z,18.9
2022-07-29T07:27:52.753Z,18.9
2022-07-29T07:33:36.884Z,19.2
2022-07-29T07:39:02.624Z,19.4
2022-07-29T07:44:42.396Z,20.5
2022-07-29T07:50:15.097Z,20.2
2022-07-29T07:56:13.128Z,21
2022-07-29T08:01:25.813Z,20.1
2022-07-29T08:07:07.854Z,21.4
2022-07-29T08:12:55.746Z,21
2022-07-29T08:18:44.123Z,21.2
2022-07-29T08:24:01.902Z,21.9
2022-07-29T08:29:57.870Z,21.8
2022-07-29T08:35:35.470Z,21.2
2022-07-29T08:41:15.715Z,21.5
2022-07-29T08:46:26.627Z,22.2
2022-07-29T08:52:29.513Z,22.7
2022-07-29T08:57:54.521Z,22.1
2022-07-29T09:03:34.838Z,21.9
2022-07-29T09:09:25.177Z,22.8
2022-07-29T09:14:50.939Z,22.7
2022-07-29T09:20:24.833Z,22.8
2022-07-29T09:26:17.986Z,23.1
2022-07-29T09:31:49.120Z,23.4
2022-07-29T09:37:38.101Z,23.4
2022-07-29T09:43:16.125Z,23.1
2022-07-29T09:48:41.730Z,22.9
2022-07-29T09:54:23.592Z,23.2
2022-07-29T10:00:04.997Z,23.1
2022-07-29T10:05:44.733Z,22.8
2022-07-29T10:11:17.899Z,22.7
2022-07-29T10:16:36.439Z,22.5
2022-07-29T10:22:51.736Z,22.8
2022-07-29T10:28:02.963Z,23.1
2022-07-29T10:33:32.670Z,23.1
2022-07-29T10:39:34.471Z,24
2022-07-29T10:45:01.014Z,24.2
2022-07-29T10:50:39.090Z,23.4
2022-07-29T10:56:09.404Z,23.5
2022-07-29T11:01:38.969Z,23.2
2022-07-29T11:07:17.723Z,23.7
2022-07-29T11:13:13.050Z,23.9
2022-07-29T11:18:31.425Z,23.8
2022-07-29T11:24:18.540Z,24.1
2022-07-29T11:29:46.664Z,24.1
2022-07-29T11:35:40.270Z,23.6
2022-07-29T11:41:13.862Z,23.6
2022-07-29T11:46:42.039Z,24.1
2022-07-29T11:52:18.661Z,23.8
2022-07-29T11:58:05.305Z,23.9
2022-07-29T12:03:32.720Z,24
2022-07-29T12:09:00.234Z,24
2022-07-29T12:14:53.724Z,24
2022-07-29T12:20:39.558Z,23.9
2022-07-29T12:26:21.967Z,23.9
2022-07-29T12:31:51.509Z,24.2
2022-07-29T12:37:35.810Z,24
2022-07-29T12:42:45.590Z,24
2022-07-29T12:48:26.654Z,23.8
2022-07-29T12:54:17.734Z,23.6
2022-07-29T12:59:49.268Z,23
2022-07-29T13:05:08.669Z,22.5
2022-07-29T13:11:05.468Z,21.9
2022-07-29T13:16:29.131Z,21.3
2022-07-29T13:22:09.260Z,20.6
2022-07-29T13:27:53.288Z,20.1
2022-07-29T13:33:18.698Z,19.8
2022-07-29T13:39:07.515Z,19.3
2022-07-29T13:44:40.401Z,19.1
2022-07-29T13:50:14.659Z,19.2
2022-07-29T13:55:39.241Z,19.7
2022-07-29T14:01:26.665Z,19.7
2022-07-29T14:06:56.073Z,19.8
2022-07-29T14:12:30.263Z,20
2022-07-29T14:18:15.658Z,20.3
2022-07-29T14:23:45.963Z,20.5
2022-07-29T14:29:18.129Z,20.5
2022-07-29T14:35:19.699Z,20.8
2022-07-29T14:40:43.924Z,20.7
2022-07-29T14:46:36.150Z,21
2022-07-29T14:51:53.949Z,21
2022-07-29T14:57:46.119Z,21.2
2022-07-29T15:03:11.153Z,21.4
2022-07-29T15:08:43.813Z,21.7
2022-07-29T15:14:30.895Z,22.1
2022-07-29T15:19:52.236Z,22.8
2022-07-29T15:25:40.145Z,22.6
2022-07-29T15:31:24.771Z,22.7
2022-07-29T15:36:56.407Z,23.2
2022-07-29T15:42:38.154Z,22.8
2022-07-29T15:48:06.949Z,22.4
2022-07-29T15:53:53.056Z,22.4
2022-07-29T15:59:31.593Z,22
2022-07-29T16:05:09.334Z,22.2
2022-07-29T16:10:49.154Z,22.1
2022-07-29T16:16:12.307Z,22.2
2022-07-29T16:22:08.049Z,22.3
2022-07-29T16:27:20.800Z,22.2
2022-07-29T16:33:08.171Z,22.2
2022-07-29T16:38:47.125Z,22.3
2022-07-29T16:44:30.027Z,22
2022-07-29T16:50:01.986Z,22
2022-07-29T16:55:35.741Z,22.1
2022-07-29T17:01:18.861Z,22.3
2022-07-29T17:06:53.146Z,22.3
2022-07-29T17:12:09.496Z,22.3
2022-07-29T17:18:12.390Z,22.4
2022-07-29T17:23:27.347Z,22.5
2022-07-29T17:29:02.467Z,22.6
2022-07-29T17:34:52.212Z,22.4
2022-07-29T17:40:39.045Z,22.4
2022-07-29T17:45:54.997Z,22
2022-07-29T17:51:37.424Z,22
2022-07-29T17:57:11.803Z,21.4
2022-07-29T18:02:59.724Z,21.1
2022-07-29T18:08:42.631Z,20.9
2022-07-29T18:14:01.299Z,20.8
2022-07-29T18:19:44.775Z,20.7
2022-07-29T18:25:36.713Z,20.2
2022-07-29T18:30:56.275Z,20.1
2022-07-29T18:36:40.355Z,19.9
2022-07-29T18:42:31.854Z,19.5
2022-07-29T18:47:59.251Z,19.4
2022-07-29T18:53:41.421Z,19.4
2022-07-29T18:59:17.514Z,19.4
2022-07-29T19:04:40.763Z,19.3
2022-07-29T19:10:14.544Z,19.2
2022-07-29T19:15:52.368Z,19.2
2022-07-29T19:21:29.534Z,19.2
2022-07-29T19:26:58.222Z,19.1
2022-07-29T19:32:58.540Z,19.2
2022-07-29T19:38:24.453Z,19
2022-07-29T19:43:53.818Z,18.9
2022-07-29T19:49:39.842Z,18.4
2022-07-29T19:55:15.629Z,18.2
2022-07-29T20:00:30.104Z,18.6
2022-07-29T20:06:26.607Z,18.7
2022-07-29T20:11:55.697Z,18.5
2022-07-29T20:17:28.017Z,18.4
2022-07-29T20:23:15.591Z,18.4
2022-07-29T20:28:28.977Z,18.5
2022-07-29T20:34:23.125Z,18.3
2022-07-29T20:39:39.294Z,18.1
2022-07-29T20:45:25.545Z,18
2022-07-29T20:50:55.891Z,18
2022-07-29T20:56:48.278Z,17.9
2022-07-29T21:02:23.368Z,18
2022-07-29T21:07:43.167Z,17.8
2022-07-29T21:13:36.839Z,17.7
2022-07-29T21:19:11.812Z,17.7
2022-07-29T21:24:27.568Z,17.2
2022-07-29T21:30:08.683Z,17.3
2022-07-29T21:35:36.055Z,17.4
2022-07-29T21:41:09.722Z,17.5
2022-07-29T21:46:41.424Z,17.6
2022-07-29T21:52:15.482Z,17.6
2022-07-29T21:58:02.510Z,17.4
2022-07-29T22:09:07.900Z,17.1
2022-07-29T22:14:49.828Z,17.1
2022-07-29T22:20:17.641Z,16.9
2022-07-29T22:26:12.045Z,16.6
2022-07-29T22:31:40.717Z,16.8
2022-07-29T22:37:02.761Z,16.8
2022-07-29T22:42:34.396Z,16.9
2022-07-29T22:48:07.944Z,16.7
2022-07-29T22:53:57.130Z,16.8
2022-07-29T22:59:39.967Z,17.2
2022-07-29T23:05:10.840Z,16.8
2022-07-29T23:10:50.379Z,16.8
2022-07-29T23:16:02.612Z,16.7
2022-07-29T23:21:50.144Z,16.4
2022-07-29T23:27:10.324Z,16.6
2022-07-29T23:32:58.748Z,17
2022-07-29T23:38:23.914Z,17
2022-07-29T23:44:08.631Z,16.6
2022-07-29T23:49:28.692Z,16.4
2022-07-29T23:55:35.950Z,16.1
